createdAt,value
2022-10-21T00:00:54.048Z,7.20
2022-10-21T00:03:36.813Z,7.12
2022-10-21T00:06:05.493Z,7.09
2022-10-21T00:08:34.211Z,6.91
2022-10-21T00:11:04.165Z,7.43
2022-10-21T00:13:33.386Z,7.41
2022-10-21T00:16:03.556Z,7.43
2022-10-21T00:18:32.961Z,7.05
2022-10-21T00:21:05.738Z,7.25
2022-10-21T00:23:34.220Z,6.86
2022-10-21T00:26:02.641Z,7.13
2022-10-21T00:28:30.994Z,7.25
2022-10-21T00:30:59.732Z,7.55
2022-10-21T00:33:30.823Z,7.90
2022-10-21T00:36:02.588Z,7.83
2022-10-21T00:38:33.100Z,7.80
2022-10-21T00:41:01.419Z,7.50
2022-10-21T00:43:30.206Z,7.40
2022-10-21T00:46:01.760Z,7.99
2022-10-21T00:48:33.343Z,8.05
2022-10-21T00:51:02.286Z,8.63
2022-10-21T00:53:33.585Z,8.16
2022-10-21T00:56:05.625Z,8.15
2022-10-21T00:58:35.229Z,8.03
2022-10-21T01:01:05.303Z,7.99
2022-10-21T01:03:34.794Z,7.59
2022-10-21T01:06:05.940Z,7.70
2022-10-21T01:08:35.687Z,8.32
2022-10-21T01:11:04.421Z,7.58
2022-10-21T01:13:40.121Z,8.00
2022-10-21T01:16:12.053Z,7.89
2022-10-21T01:18:46.598Z,7.87
2022-10-21T01:21:22.105Z,7.75
2022-10-21T01:24:25.443Z,7.71
2022-10-21T01:27:07.188Z,7.58
2022-10-21T01:30:08.332Z,7.47
2022-10-21T01:32:52.574Z,7.60
2022-10-21T01:35:23.155Z,7.29
2022-10-21T01:37:56.781Z,7.42
2022-10-21T01:40:28.477Z,7.35
2022-10-21T01:42:56.647Z,7.91
2022-10-21T01:45:30.900Z,7.55
2022-10-21T01:48:03.009Z,7.33
2022-10-21T01:50:34.423Z,7.13
2022-10-21T01:53:06.197Z,7.17
2022-10-21T01:55:34.859Z,6.87
2022-10-21T01:58:04.870Z,7.17
2022-10-21T02:00:34.578Z,7.08
2022-10-21T02:03:06.785Z,7.29
2022-10-21T02:05:35.848Z,7.20
2022-10-21T02:08:04.476Z,7.05
2022-10-21T02:10:35.159Z,7.27
2022-10-21T02:13:05.131Z,7.18
2022-10-21T02:15:34.524Z,7.04
2022-10-21T02:18:07.237Z,7.14
2022-10-21T02:20:38.081Z,7.02
2022-10-21T02:23:08.301Z,7.13
2022-10-21T02:25:37.972Z,6.99
2022-10-21T02:28:06.269Z,6.71
2022-10-21T02:30:40.473Z,7.17
2022-10-21T02:33:12.408Z,7.15
2022-10-21T02:35:45.203Z,7.14
2022-10-21T02:38:20.171Z,7.29
2022-10-21T02:40:51.817Z,7.12
2022-10-21T02:43:20.377Z,7.54
2022-10-21T02:45:49.321Z,6.83
2022-10-21T02:48:18.890Z,6.68
2022-10-21T02:50:47.126Z,6.32
2022-10-21T02:53:15.474Z,6.48
2022-10-21T02:55:43.803Z,6.53
2022-10-21T02:58:11.870Z,6.36
2022-10-21T03:00:40.251Z,6.48
2022-10-21T03:03:08.439Z,6.39
2022-10-21T03:05:38.034Z,6.71
2022-10-21T03:08:06.980Z,6.52
2022-10-21T03:10:35.260Z,6.28
2022-10-21T03:13:03.561Z,6.25
2022-10-21T03:15:31.866Z,6.23
2022-10-21T03:17:59.909Z,6.23
2022-10-21T03:20:28.341Z,6.21
2022-10-21T03:22:57.861Z,6.17
2022-10-21T03:25:26.341Z,5.89
2022-10-21T03:27:54.421Z,5.85
2022-10-21T03:30:22.817Z,5.79
2022-10-21T03:32:51.005Z,5.73
2022-10-21T03:35:19.413Z,5.91
2022-10-21T03:37:47.580Z,5.90
2022-10-21T03:40:18.159Z,6.40
2022-10-21T03:42:46.407Z,6.07
2022-10-21T03:45:14.755Z,6.21
2022-10-21T03:47:42.937Z,6.13
2022-10-21T03:50:13.978Z,6.16
2022-10-21T03:52:44.670Z,6.04
2022-10-21T03:55:13.459Z,6.22
2022-10-21T03:57:43.362Z,6.45
2022-10-21T04:02:46.351Z,5.96
2022-10-21T04:05:15.085Z,6.20
2022-10-21T04:07:43.236Z,5.99
2022-10-21T04:10:12.197Z,6.06
2022-10-21T04:12:40.574Z,5.93
2022-10-21T04:15:13.743Z,6.51
2022-10-21T04:17:42.068Z,6.28
2022-10-21T04:20:11.995Z,6.56
2022-10-21T04:22:40.468Z,6.22
2022-10-21T04:25:09.465Z,6.37
2022-10-21T04:27:37.715Z,6.26
2022-10-21T04:30:07.549Z,6.42
2022-10-21T04:32:37.552Z,6.68
2022-10-21T04:35:06.909Z,6.38
2022-10-21T04:37:40.205Z,6.16
2022-10-21T04:40:10.403Z,6.50
2022-10-21T04:42:38.595Z,6.26
2022-10-21T04:45:07.898Z,6.40
2022-10-21T04:47:37.743Z,6.78
2022-10-21T04:50:06.973Z,6.53
2022-10-21T04:52:35.330Z,6.46
2022-10-21T04:55:03.655Z,6.25
2022-10-21T04:57:31.802Z,6.44
2022-10-21T05:00:00.068Z,6.46
2022-10-21T05:02:28.407Z,6.53
2022-10-21T05:04:58.087Z,6.79
2022-10-21T05:07:26.355Z,6.25
2022-10-21T05:09:54.744Z,6.32
2022-10-21T05:12:22.924Z,6.29
2022-10-21T05:14:51.314Z,6.52
2022-10-21T05:17:19.384Z,6.61
2022-10-21T05:19:47.797Z,6.68
2022-10-21T05:22:17.294Z,7.05
2022-10-21T05:24:45.863Z,6.74
2022-10-21T05:27:13.988Z,6.69
2022-10-21T05:29:42.330Z,6.78
2022-10-21T05:32:10.426Z,6.83
2022-10-21T05:34:38.920Z,6.88
2022-10-21T05:37:07.113Z,6.86
2022-10-21T05:39:36.969Z,7.29
2022-10-21T05:42:05.380Z,7.29
2022-10-21T05:44:33.764Z,7.49
2022-10-21T05:47:01.835Z,7.97
2022-10-21T05:49:30.205Z,8.50
2022-10-21T05:51:58.512Z,9.22
2022-10-21T05:54:26.965Z,10.10
2022-10-21T05:56:58.018Z,11.24
2022-10-21T05:59:27.029Z,11.13
2022-10-21T06:01:55.075Z,11.16
2022-10-21T06:04:23.469Z,10.83
2022-10-21T06:06:51.676Z,10.63
2022-10-21T06:09:20.038Z,10.47
2022-10-21T06:11:48.322Z,10.18
2022-10-21T06:14:19.927Z,10.41
2022-10-21T06:16:48.162Z,9.86
2022-10-21T06:19:16.595Z,9.76
2022-10-21T06:21:44.788Z,9.75
2022-10-21T06:24:13.590Z,9.56
2022-10-21T06:26:41.790Z,9.22
2022-10-21T06:29:10.352Z,9.17
2022-10-21T06:31:39.863Z,9.39
2022-10-21T06:34:08.229Z,9.06
2022-10-21T06:36:38.293Z,8.98
2022-10-21T06:39:06.814Z,9.06
2022-10-21T06:41:35.219Z,9.18
2022-10-21T06:44:03.562Z,9.45
2022-10-21T06:46:31.969Z,9.78
2022-10-21T06:49:01.703Z,10.45
2022-10-21T06:51:30.545Z,10.54
2022-10-21T06:54:00.220Z,11.15
2022-10-21T06:56:29.243Z,11.73
2022-10-21T06:58:59.301Z,12.19
2022-10-21T07:01:35.226Z,12.25
2022-10-21T07:04:17.981Z,13.09
2022-10-21T07:06:46.464Z,13.81
2022-10-21T07:09:14.824Z,15.21
2022-10-21T07:11:43.244Z,16.05
2022-10-21T07:14:12.450Z,16.41
2022-10-21T07:16:40.634Z,17.02
2022-10-21T07:19:09.093Z,17.60
2022-10-21T07:21:38.621Z,19.20
2022-10-21T07:24:07.235Z,19.53
2022-10-21T07:26:38.722Z,19.66
2022-10-21T07:29:10.217Z,18.17
2022-10-21T07:31:39.409Z,17.92
2022-10-21T07:34:09.615Z,17.17
2022-10-21T07:36:41.991Z,16.37
2022-10-21T07:39:12.999Z,15.65
2022-10-21T07:41:43.476Z,15.15
2022-10-21T07:44:12.596Z,14.71
2022-10-21T07:46:41.572Z,14.57
2022-10-21T07:49:10.785Z,14.75
2022-10-21T07:51:41.332Z,15.08
2022-10-21T07:54:10.066Z,14.99
2022-10-21T07:56:40.571Z,15.66
2022-10-21T07:59:12.928Z,15.71
2022-10-21T08:01:44.814Z,15.73
2022-10-21T08:04:14.281Z,15.76
2022-10-21T08:06:44.258Z,15.90
2022-10-21T08:09:12.635Z,15.75
2022-10-21T08:11:40.820Z,15.91
2022-10-21T08:14:10.120Z,15.88
2022-10-21T08:16:38.494Z,15.89
2022-10-21T08:19:07.988Z,16.30
2022-10-21T08:21:38.368Z,16.63
2022-10-21T08:24:08.316Z,16.93
2022-10-21T08:26:36.416Z,16.50
2022-10-21T08:29:05.268Z,16.55
2022-10-21T08:31:33.501Z,16.60
2022-10-21T08:34:01.957Z,16.78
2022-10-21T08:36:30.258Z,17.13
2022-10-21T08:38:59.529Z,17.23
2022-10-21T08:41:37.480Z,17.48
2022-10-21T08:44:07.204Z,16.92
2022-10-21T08:46:37.111Z,17.04
2022-10-21T08:49:10.711Z,17.56
2022-10-21T08:51:42.448Z,17.80
2022-10-21T08:54:15.228Z,18.10
2022-10-21T08:56:45.186Z,17.90
2022-10-21T08:59:20.545Z,17.47
2022-10-21T09:01:55.211Z,16.78
2022-10-21T09:04:29.885Z,16.42
2022-10-21T09:07:02.499Z,15.91
2022-10-21T09:09:33.963Z,15.50
2022-10-21T09:12:07.178Z,15.27
2022-10-21T09:14:47.413Z,15.19
2022-10-21T09:17:23.983Z,14.99
2022-10-21T09:19:56.952Z,14.78
2022-10-21T09:22:37.936Z,14.78
2022-10-21T09:25:19.175Z,14.62
2022-10-21T09:27:56.375Z,14.23
2022-10-21T09:30:25.977Z,14.22
2022-10-21T09:32:59.133Z,14.44
2022-10-21T09:35:33.845Z,14.41
2022-10-21T09:38:04.240Z,14.25
2022-10-21T09:40:34.038Z,13.91
2022-10-21T09:43:04.288Z,14.00
2022-10-21T09:45:34.402Z,13.74
2022-10-21T09:48:04.921Z,13.66
2022-10-21T09:50:34.493Z,13.36
2022-10-21T09:53:08.144Z,13.35
2022-10-21T09:55:36.581Z,13.15
2022-10-21T09:58:06.344Z,13.34
2022-10-21T10:00:47.863Z,13.70
2022-10-21T10:03:30.316Z,13.97
2022-10-21T10:05:59.206Z,13.11
2022-10-21T10:08:36.884Z,13.61
2022-10-21T10:11:20.415Z,13.52
2022-10-21T10:13:51.621Z,13.30
2022-10-21T10:16:23.867Z,13.31
2022-10-21T10:18:53.881Z,13.24
2022-10-21T10:21:23.706Z,13.32
2022-10-21T10:23:53.542Z,13.55
2022-10-21T10:26:25.220Z,13.67
2022-10-21T10:28:56.812Z,13.60
2022-10-21T10:31:31.344Z,13.81
2022-10-21T10:34:04.656Z,13.67
2022-10-21T10:36:36.432Z,13.76
2022-10-21T10:39:07.745Z,13.71
2022-10-21T10:41:39.527Z,13.64
2022-10-21T10:44:23.090Z,13.96
2022-10-21T10:46:55.349Z,14.00
2022-10-21T10:49:23.996Z,13.98
2022-10-21T10:52:07.079Z,14.83
2022-10-21T10:54:35.518Z,14.55
2022-10-21T10:57:06.943Z,14.96
2022-10-21T10:59:42.648Z,14.93
2022-10-21T11:02:23.815Z,14.94
2022-10-21T11:05:13.591Z,15.30
2022-10-21T11:07:46.400Z,15.65
2022-10-21T11:10:27.892Z,16.14
2022-10-21T11:12:56.592Z,15.58
2022-10-21T11:15:47.996Z,16.14
2022-10-21T11:18:25.611Z,16.47
2022-10-21T11:21:13.156Z,15.93
2022-10-21T11:24:02.187Z,15.97
2022-10-21T11:26:36.876Z,16.01
2022-10-21T11:29:17.850Z,15.98
2022-10-21T11:32:10.605Z,16.23
2022-10-21T11:34:49.957Z,16.55
2022-10-21T11:37:25.390Z,16.69
2022-10-21T11:39:58.164Z,16.61
2022-10-21T11:42:31.622Z,16.83
2022-10-21T11:45:10.746Z,16.93
2022-10-21T11:47:46.969Z,17.03
2022-10-21T11:53:12.512Z,17.10
2022-10-21T11:56:02.566Z,17.30
2022-10-21T11:58:39.674Z,17.34
2022-10-21T12:01:23.827Z,18.05
2022-10-21T12:04:09.022Z,18.80
2022-10-21T12:06:42.548Z,18.59
2022-10-21T12:09:15.783Z,18.21
2022-10-21T12:11:47.293Z,18.06
2022-10-21T12:14:30.161Z,18.44
2022-10-21T12:17:01.047Z,18.25
2022-10-21T12:19:30.630Z,18.48
2022-10-21T12:21:59.319Z,18.38
2022-10-21T12:24:41.913Z,18.87
2022-10-21T12:27:18.102Z,18.99
2022-10-21T12:29:54.351Z,19.09
2022-10-21T12:32:27.259Z,19.15
2022-10-21T12:34:56.948Z,19.07
2022-10-21T12:37:45.283Z,19.59
2022-10-21T12:40:15.600Z,19.26
2022-10-21T12:42:48.802Z,19.17
2022-10-21T12:45:28.380Z,19.38
2022-10-21T12:47:57.883Z,19.04
2022-10-21T12:50:30.072Z,19.22
2022-10-21T12:53:08.212Z,19.53
2022-10-21T12:55:41.204Z,19.33
2022-10-21T12:58:22.959Z,19.49
2022-10-21T13:00:57.081Z,19.41
2022-10-21T13:03:50.542Z,19.47
2022-10-21T13:06:49.774Z,19.40
2022-10-21T13:09:38.087Z,19.37
2022-10-21T13:12:27.348Z,19.21
2022-10-21T13:14:56.743Z,18.68
2022-10-21T13:17:50.903Z,19.40
2022-10-21T13:20:50.056Z,19.15
2022-10-21T13:23:41.690Z,19.23
2022-10-21T13:26:31.162Z,19.65
2022-10-21T13:29:02.723Z,18.95
2022-10-21T13:31:31.186Z,18.60
2022-10-21T13:33:59.479Z,18.44
2022-10-21T13:39:25.692Z,19.38
2022-10-21T13:42:00.675Z,19.30
2022-10-21T13:44:32.140Z,19.13
2022-10-21T13:47:00.536Z,18.83
2022-10-21T13:49:30.265Z,19.01
2022-10-21T13:51:59.328Z,18.91
2022-10-21T13:54:35.877Z,19.48
2022-10-21T13:57:07.362Z,19.42
2022-10-21T13:59:35.571Z,18.90
2022-10-21T14:02:05.358Z,18.99
2022-10-21T14:04:34.820Z,19.05
2022-10-21T14:07:06.251Z,19.11
2022-10-21T14:09:40.227Z,19.21
2022-10-21T14:12:10.040Z,18.91
2022-10-21T14:14:40.150Z,19.00
2022-10-21T14:17:10.587Z,18.83
2022-10-21T14:19:39.976Z,18.76
2022-10-21T14:22:10.399Z,18.55
2022-10-21T14:24:42.192Z,18.68
2022-10-21T14:27:13.016Z,18.67
2022-10-21T14:29:41.974Z,18.31
2022-10-21T14:32:14.484Z,18.72
2022-10-21T14:35:00.053Z,19.00
2022-10-21T14:37:28.538Z,18.27
2022-10-21T14:40:10.976Z,19.02
2022-10-21T14:42:41.117Z,18.49
2022-10-21T14:45:17.438Z,18.70
2022-10-21T14:47:50.400Z,18.54
2022-10-21T14:50:21.728Z,18.30
2022-10-21T14:52:50.275Z,17.88
2022-10-21T14:55:29.049Z,18.15
2022-10-21T14:58:02.884Z,18.25
2022-10-21T15:00:34.962Z,18.21
2022-10-21T15:03:03.531Z,17.67
2022-10-21T15:05:35.621Z,17.96
2022-10-21T15:08:32.402Z,18.49
2022-10-21T15:11:23.738Z,18.42
2022-10-21T15:14:00.291Z,18.06
2022-10-21T15:16:30.660Z,17.82
2022-10-21T15:18:59.589Z,17.59
2022-10-21T15:21:33.814Z,17.89
2022-10-21T15:24:02.631Z,17.49
2022-10-21T15:26:35.486Z,17.72
2022-10-21T15:29:13.926Z,17.87
2022-10-21T15:31:42.103Z,17.25
2022-10-21T15:34:14.501Z,17.70
2022-10-21T15:36:42.739Z,17.14
2022-10-21T15:39:11.362Z,17.07
2022-10-21T15:41:41.414Z,17.48
2022-10-21T15:44:19.397Z,17.76
2022-10-21T15:46:50.012Z,17.27
2022-10-21T15:49:20.847Z,17.42
2022-10-21T15:51:49.937Z,17.22
2022-10-21T15:54:19.909Z,17.32
2022-10-21T15:56:52.695Z,17.42
2022-10-21T15:59:23.674Z,17.31
2022-10-21T16:01:52.232Z,17.11
2022-10-21T16:04:20.806Z,16.97
2022-10-21T16:06:49.655Z,17.02
2022-10-21T16:09:20.997Z,17.19
2022-10-21T16:11:59.525Z,17.30
2022-10-21T16:14:30.138Z,16.85
2022-10-21T16:16:59.901Z,17.02
2022-10-21T16:19:29.073Z,16.85
2022-10-21T16:21:57.535Z,16.73
2022-10-21T16:24:26.054Z,16.55
2022-10-21T16:26:55.503Z,17.03
2022-10-21T16:29:24.788Z,16.64
2022-10-21T16:31:52.934Z,16.52
2022-10-21T16:34:21.353Z,16.52
2022-10-21T16:36:49.491Z,16.59
2022-10-21T16:39:19.726Z,16.77
2022-10-21T16:41:47.875Z,16.44
2022-10-21T16:44:17.683Z,16.82
2022-10-21T16:46:50.844Z,16.99
2022-10-21T16:49:22.367Z,16.77
2022-10-21T16:51:52.025Z,16.42
2022-10-21T16:54:21.157Z,16.45
2022-10-21T16:56:52.092Z,16.38
2022-10-21T16:59:24.858Z,16.61
2022-10-21T17:01:53.106Z,16.25
2022-10-21T17:04:22.192Z,16.17
2022-10-21T17:06:50.774Z,16.11
2022-10-21T17:09:19.477Z,16.08
2022-10-21T17:11:48.477Z,16.09
2022-10-21T17:14:20.327Z,16.44
2022-10-21T17:16:49.911Z,16.22
2022-10-21T17:19:18.434Z,15.78
2022-10-21T17:21:47.051Z,15.98
2022-10-21T17:24:17.607Z,16.17
2022-10-21T17:26:46.295Z,16.09
2022-10-21T17:29:14.576Z,15.89
2022-10-21T17:31:44.184Z,16.16
2022-10-21T17:34:26.242Z,16.51
2022-10-21T17:36:55.273Z,15.85
2022-10-21T17:39:24.566Z,15.91
2022-10-21T17:41:52.895Z,15.80
2022-10-21T17:44:21.543Z,15.80
2022-10-21T17:46:54.359Z,15.91
2022-10-21T17:49:24.726Z,16.22
2022-10-21T17:51:53.452Z,15.93
2022-10-21T17:54:25.976Z,15.93
2022-10-21T17:56:57.283Z,15.74
2022-10-21T17:59:26.841Z,15.80
2022-10-21T18:01:55.007Z,15.63
2022-10-21T18:04:24.833Z,15.83
2022-10-21T18:06:53.084Z,15.60
2022-10-21T18:09:21.516Z,15.56
2022-10-21T18:11:49.774Z,15.62
2022-10-21T18:14:18.047Z,15.68
2022-10-21T18:16:46.311Z,15.62
2022-10-21T18:19:15.279Z,15.62
2022-10-21T18:21:44.901Z,15.87
2022-10-21T18:24:13.698Z,15.55
2022-10-21T18:26:42.250Z,15.57
2022-10-21T18:29:10.693Z,15.48
2022-10-21T18:31:39.876Z,15.69
2022-10-21T18:34:09.408Z,15.62
2022-10-21T18:36:38.007Z,15.54
2022-10-21T18:39:07.884Z,15.88
2022-10-21T18:41:36.311Z,15.42
2022-10-21T18:44:08.429Z,15.70
2022-10-21T18:46:37.753Z,15.59
2022-10-21T18:49:07.854Z,15.57
2022-10-21T18:51:36.074Z,15.31
2022-10-21T18:54:05.518Z,15.66
2022-10-21T18:56:34.993Z,15.69
2022-10-21T18:59:06.401Z,15.72
2022-10-21T19:01:34.716Z,15.28
2022-10-21T19:04:03.323Z,15.35
2022-10-21T19:06:36.070Z,15.74
2022-10-21T19:09:07.560Z,15.64
2022-10-21T19:11:37.161Z,15.69
2022-10-21T19:14:07.323Z,15.32
2022-10-21T19:16:38.241Z,15.38
2022-10-21T19:19:07.395Z,15.54
2022-10-21T19:21:35.634Z,15.31
2022-10-21T19:24:04.383Z,15.21
2022-10-21T19:26:33.511Z,15.25
2022-10-21T19:29:05.966Z,15.64
2022-10-21T19:31:36.202Z,15.18
2022-10-21T19:34:06.202Z,15.18
2022-10-21T19:36:34.622Z,15.21
2022-10-21T19:39:03.169Z,15.16
2022-10-21T19:41:31.345Z,15.24
2022-10-21T19:43:59.962Z,15.26
2022-10-21T19:46:30.444Z,15.68
2022-10-21T19:48:58.895Z,15.26
2022-10-21T19:51:27.582Z,15.43
2022-10-21T19:53:56.738Z,15.42
2022-10-21T19:56:29.569Z,15.30
2022-10-21T19:59:02.880Z,15.27
2022-10-21T20:01:33.655Z,15.43
2022-10-21T20:04:03.211Z,15.28
2022-10-21T20:06:32.936Z,15.23
2022-10-21T20:09:03.181Z,15.26
2022-10-21T20:11:31.577Z,14.99
2022-10-21T20:14:00.150Z,14.81
2022-10-21T20:16:29.764Z,15.03
2022-10-21T20:19:01.223Z,15.18
2022-10-21T20:21:30.994Z,15.09
2022-10-21T20:24:00.118Z,14.80
2022-10-21T20:26:28.843Z,14.55
2022-10-21T20:28:57.799Z,14.75
2022-10-21T20:31:25.891Z,14.59
2022-10-21T20:33:54.288Z,14.53
2022-10-21T20:36:25.297Z,14.86
2022-10-21T20:38:55.188Z,14.67
2022-10-21T20:41:25.795Z,14.60
2022-10-21T20:43:55.351Z,14.62
2022-10-21T20:46:25.298Z,14.57
2022-10-21T20:48:54.604Z,14.38
2022-10-21T20:51:25.634Z,14.68
2022-10-21T20:53:54.981Z,14.38
2022-10-21T20:56:23.613Z,14.34
2022-10-21T20:58:51.878Z,14.18
2022-10-21T21:01:22.605Z,14.50
2022-10-21T21:03:51.594Z,14.33
2022-10-21T21:06:20.635Z,14.47
2022-10-21T21:09:08.547Z,14.68
2022-10-21T21:11:38.590Z,14.17
2022-10-21T21:14:07.201Z,14.36
2022-10-21T21:16:35.302Z,14.36
2022-10-21T21:19:05.375Z,14.57
2022-10-21T21:21:34.977Z,14.57
2022-10-21T21:24:05.662Z,14.66
2022-10-21T21:26:36.322Z,14.47
2022-10-21T21:29:06.326Z,14.31
2022-10-21T21:31:35.835Z,14.58
2022-10-21T21:34:04.883Z,14.50
2022-10-21T21:36:32.995Z,14.29
2022-10-21T21:39:01.380Z,14.26
2022-10-21T21:41:31.076Z,14.61
2022-10-21T21:43:59.474Z,14.20
2022-10-21T21:46:28.249Z,14.43
2022-10-21T21:49:00.889Z,14.56
2022-10-21T21:51:31.935Z,14.54
2022-10-21T21:54:00.373Z,14.29
2022-10-21T21:56:30.010Z,14.30
2022-10-21T21:58:58.720Z,14.33
2022-10-21T22:01:28.549Z,14.54
2022-10-21T22:03:57.910Z,14.57
2022-10-21T22:06:32.111Z,14.63
2022-10-21T22:09:00.940Z,14.46
2022-10-21T22:11:31.942Z,14.63
2022-10-21T22:14:00.745Z,14.30
2022-10-21T22:16:30.597Z,14.27
2022-10-21T22:19:01.084Z,14.50
2022-10-21T22:21:31.430Z,14.47
2022-10-21T22:23:59.832Z,14.30
2022-10-21T22:26:28.930Z,14.28
2022-10-21T22:28:58.791Z,14.36
2022-10-21T22:31:29.521Z,14.12
2022-10-21T22:34:00.882Z,14.66
2022-10-21T22:36:29.071Z,14.31
2022-10-21T22:38:57.847Z,14.30
2022-10-21T22:41:26.043Z,14.26
2022-10-21T22:43:54.456Z,14.20
2022-10-21T22:46:39.410Z,14.63
2022-10-21T22:49:08.214Z,14.49
2022-10-21T22:51:36.533Z,14.34
2022-10-21T22:54:11.595Z,14.46
2022-10-21T22:56:47.739Z,14.26
2022-10-21T22:59:16.166Z,14.24
2022-10-21T23:01:45.611Z,14.63
2022-10-21T23:04:14.099Z,14.34
2022-10-21T23:06:42.211Z,14.36
2022-10-21T23:09:10.577Z,14.23
2022-10-21T23:11:38.949Z,14.31
2022-10-21T23:14:09.580Z,14.36
2022-10-21T23:16:38.430Z,14.36
2022-10-21T23:19:09.367Z,14.69
2022-10-21T23:21:38.187Z,14.44
2022-10-21T23:24:07.540Z,14.53
2022-10-21T23:26:36.744Z,14.38
2022-10-21T23:29:05.693Z,14.19
2022-10-21T23:31:33.929Z,14.01
2022-10-21T23:34:02.920Z,14.14
2022-10-21T23:36:33.072Z,14.62
2022-10-21T23:39:01.864Z,14.30
2022-10-21T23:41:30.225Z,14.35
2022-10-21T23:43:58.588Z,14.38
2022-10-21T23:48:55.897Z,14.50
2022-10-21T23:51:24.085Z,14.45
2022-10-21T23:53:53.757Z,14.67
2022-10-21T23:56:22.113Z,14.39
2022-10-21T23:58:50.346Z,14.36
